Time,TemperatureF,DewpointF,PressureIn,WindDirection,WindDirectionDegrees,WindSpeedMPH,WindSpeedGustMPH,Humidity,HourlyPrecipIn,Conditions,Clouds,dailyrainin,SolarRadiationWatts/m^2,SoftwareType,DateUTC
2013-02-07 00:21:00,39.0,33.0,-100.00,NNE,28,0.0,4.0,78,0.00,,,0.00,0.000000,,2013-02-07 08:21:00,
2013-02-07 00:31:00,39.0,33.0,-100.00,NNE,28,0.0,4.0,78,0.00,,,0.00,0.000000,,2013-02-07 08:31:00,
2013-02-07 00:41:00,39.0,33.0,-100.00,NNE,28,0.0,4.0,78,0.00,,,0.00,0.000000,,2013-02-07 08:41:00,
2013-02-07 00:52:00,39.0,33.0,-100.00,NNE,28,0.0,4.0,78,0.00,,,0.00,0.000000,,2013-02-07 08:52:00,
2013-02-07 01:21:00,40.0,30.0,-100.00,NNE,31,2.0,11.0,66,0.00,,,0.00,0.000000,,2013-02-07 09:21:00,
2013-02-07 01:31:00,40.0,30.0,-100.00,NNE,31,2.0,11.0,66,0.00,,,0.00,0.000000,,2013-02-07 09:31:00,
2013-02-07 01:41:00,40.0,30.0,-100.00,NNE,31,2.0,11.0,66,0.00,,,0.00,0.000000,,2013-02-07 09:41:00,
2013-02-07 01:51:00,40.0,30.0,-100.00,NNE,31,2.0,11.0,66,0.00,,,0.00,0.000000,,2013-02-07 09:51:00,
2013-02-07 02:22:00,36.0,25.0,-100.00,NNE,24,1.0,10.0,65,0.00,,,0.00,0.000000,,2013-02-07 10:22:00,
2013-02-07 02:31:00,36.0,25.0,-100.00,NNE,24,1.0,10.0,65,0.00,,,0.00,0.000000,,2013-02-07 10:31:00,
2013-02-07 02:41:00,36.0,25.0,-100.00,NNE,24,1.0,10.0,65,0.00,,,0.00,0.000000,,2013-02-07 10:41:00,
2013-02-07 02:51:00,36.0,25.0,-100.00,NNE,24,1.0,10.0,65,0.00,,,0.00,0.000000,,2013-02-07 10:51:00,
2013-02-07 03:22:00,35.0,26.0,-100.00,SW,224,0.0,3.0,70,0.00,,,0.00,0.000000,,2013-02-07 11:22:00,
2013-02-07 03:32:00,35.0,26.0,-100.00,SW,224,0.0,3.0,70,0.00,,,0.00,0.000000,,2013-02-07 11:32:00,
2013-02-07 03:43:00,35.0,26.0,-100.00,SW,224,0.0,3.0,70,0.00,,,0.00,0.000000,,2013-02-07 11:43:00,
2013-02-07 03:52:00,35.0,26.0,-100.00,SW,224,0.0,3.0,70,0.00,,,0.00,0.000000,,2013-02-07 11:52:00,
2013-02-07 04:22:00,37.0,27.0,-100.00,South,181,0.0,7.0,67,0.00,,,0.00,0.000000,,2013-02-07 12:22:00,
2013-02-07 04:32:00,37.0,27.0,-100.00,South,181,0.0,7.0,67,0.00,,,0.00,0.000000,,2013-02-07 12:32:00,
2013-02-07 04:42:00,37.0,27.0,-100.00,South,181,0.0,7.0,67,0.00,,,0.00,0.000000,,2013-02-07 12:42:00,
2013-02-07 04:52:00,37.0,27.0,-100.00,South,181,0.0,7.0,67,0.00,,,0.00,0.000000,,2013-02-07 12:52:00,
2013-02-07 05:22:00,35.0,23.0,-100.00,SW,228,0.0,5.0,61,0.00,,,0.00,0.000000,,2013-02-07 13:22:00,
2013-02-07 05:32:00,35.0,23.0,-100.00,SW,228,0.0,5.0,61,0.00,,,0.00,0.000000,,2013-02-07 13:32:00,
2013-02-07 05:42:00,35.0,23.0,-100.00,SW,228,0.0,5.0,61,0.00,,,0.00,0.000000,,2013-02-07 13:42:00,
2013-02-07 05:51:00,35.0,23.0,-100.00,SW,228,0.0,5.0,61,0.00,,,0.00,0.000000,,2013-02-07 13:51:00,
2013-02-07 06:21:00,34.0,27.0,-100.00,SSE,152,0.0,5.0,74,0.00,,,0.00,0.000000,,2013-02-07 14:21:00,
2013-02-07 06:32:00,34.0,27.0,-100.00,SSE,152,0.0,5.0,74,0.00,,,0.00,0.000000,,2013-02-07 14:32:00,
2013-02-07 06:41:00,34.0,27.0,-100.00,SSE,152,0.0,5.0,74,0.00,,,0.00,0.000000,,2013-02-07 14:41:00,
2013-02-07 06:52:00,34.0,27.0,-100.00,SSE,152,0.0,5.0,74,0.00,,,0.00,0.000000,,2013-02-07 14:52:00,
2013-02-07 07:22:00,32.0,25.0,-100.00,North,9,0.0,0.0,74,0.00,,,0.00,1.000000,,2013-02-07 15:22:00,
2013-02-07 07:32:00,32.0,25.0,-100.00,North,9,0.0,0.0,74,0.00,,,0.00,1.000000,,2013-02-07 15:32:00,
2013-02-07 07:42:00,32.0,25.0,-100.00,North,9,0.0,0.0,74,0.00,,,0.00,1.000000,,2013-02-07 15:42:00,
2013-02-07 07:52:00,32.0,25.0,-100.00,North,9,0.0,0.0,74,0.00,,,0.00,1.000000,,2013-02-07 15:52:00,
2013-02-07 08:21:00,39.0,32.0,-100.00,WSW,240,0.0,0.0,75,0.00,,,0.00,53.000000,,2013-02-07 16:21:00,
2013-02-07 08:41:00,39.0,32.0,-100.00,WSW,240,0.0,0.0,75,0.00,,,0.00,53.000000,,2013-02-07 16:41:00,
2013-02-07 08:52:00,39.0,32.0,-100.00,WSW,240,0.0,0.0,75,0.00,,,0.00,53.000000,,2013-02-07 16:52:00,
2013-02-07 09:21:00,43.0,30.0,-100.00,SE,136,1.0,6.0,59,0.00,,,0.00,308.000000,,2013-02-07 17:21:00,
2013-02-07 09:31:00,43.0,30.0,-100.00,SE,136,1.0,6.0,59,0.00,,,0.00,308.000000,,2013-02-07 17:31:00,
2013-02-07 09:42:00,43.0,30.0,-100.00,SE,136,1.0,6.0,59,0.00,,,0.00,308.000000,,2013-02-07 17:42:00,
2013-02-07 09:52:00,43.0,30.0,-100.00,SE,136,1.0,6.0,59,0.00,,,0.00,308.000000,,2013-02-07 17:52:00,
2013-02-07 10:23:00,47.0,27.0,-100.00,South,176,6.0,10.0,46,0.00,,,0.00,510.000000,,2013-02-07 18:23:00,
2013-02-07 10:31:00,47.0,27.0,-100.00,South,176,6.0,10.0,46,0.00,,,0.00,510.000000,,2013-02-07 18:31:00,
2013-02-07 10:41:00,47.0,27.0,-100.00,South,176,6.0,10.0,46,0.00,,,0.00,510.000000,,2013-02-07 18:41:00,
2013-02-07 10:51:00,47.0,27.0,-100.00,South,176,6.0,10.0,46,0.00,,,0.00,510.000000,,2013-02-07 18:51:00,
2013-02-07 11:22:00,51.0,25.0,-100.00,SSE,165,6.0,11.0,36,0.00,,,0.00,665.000000,,2013-02-07 19:22:00,
2013-02-07 11:31:00,51.0,25.0,-100.00,SSE,165,6.0,11.0,36,0.00,,,0.00,665.000000,,2013-02-07 19:31:00,
2013-02-07 11:41:00,51.0,25.0,-100.00,SSE,165,6.0,11.0,36,0.00,,,0.00,665.000000,,2013-02-07 19:41:00,
2013-02-07 11:51:00,51.0,25.0,-100.00,SSE,165,6.0,11.0,36,0.00,,,0.00,665.000000,,2013-02-07 19:51:00,
2013-02-07 12:21:00,56.0,27.0,-100.00,South,180,9.0,15.0,32,0.00,,,-99.99,755.000000,,2013-02-07 20:21:00,
2013-02-07 12:31:00,56.0,27.0,-100.00,South,180,9.0,15.0,32,0.00,,,-99.99,755.000000,,2013-02-07 20:31:00,
2013-02-07 12:41:00,56.0,27.0,-100.00,South,180,9.0,15.0,32,0.00,,,-99.99,755.000000,,2013-02-07 20:41:00,
2013-02-07 12:52:00,56.0,27.0,-100.00,South,180,9.0,15.0,32,0.00,,,-99.99,755.000000,,2013-02-07 20:52:00,
2013-02-07 13:21:00,57.0,23.0,-100.00,SSE,165,12.0,16.0,27,0.00,,,0.00,776.000000,,2013-02-07 21:21:00,
2013-02-07 13:31:00,57.0,23.0,-100.00,SSE,165,12.0,16.0,27,0.00,,,0.00,776.000000,,2013-02-07 21:31:00,
2013-02-07 13:42:00,57.0,23.0,-100.00,SSE,165,12.0,16.0,27,0.00,,,0.00,776.000000,,2013-02-07 21:42:00,
2013-02-07 13:51:00,57.0,23.0,-100.00,SSE,165,12.0,16.0,27,0.00,,,0.00,776.000000,,2013-02-07 21:51:00,
2013-02-07 14:21:00,57.0,34.0,-100.00,SSE,167,18.0,24.0,41,0.00,,,0.00,725.000000,,2013-02-07 22:21:00,
2013-02-07 14:42:00,57.0,34.0,-100.00,SSE,167,18.0,24.0,41,0.00,,,0.00,725.000000,,2013-02-07 22:42:00,
2013-02-07 14:51:00,57.0,34.0,-100.00,SSE,167,18.0,24.0,41,0.00,,,0.00,725.000000,,2013-02-07 22:51:00,
2013-02-07 15:21:00,50.0,35.0,-100.00,South,169,26.0,33.0,57,0.00,,,0.00,592.000000,,2013-02-07 23:21:00,
2013-02-07 15:41:00,50.0,35.0,-100.00,South,169,26.0,33.0,57,0.00,,,0.00,592.000000,,2013-02-07 23:41:00,
2013-02-07 15:52:00,50.0,35.0,-100.00,South,169,26.0,33.0,57,0.00,,,0.00,592.000000,,2013-02-07 23:52:00,
2013-02-07 16:21:00,47.0,34.0,-100.00,SSE,158,23.0,33.0,61,0.00,,,0.00,378.000000,,2013-02-08 00:21:00,
2013-02-07 16:31:00,47.0,34.0,-100.00,SSE,158,23.0,33.0,61,0.00,,,0.00,378.000000,,2013-02-08 00:31:00,
2013-02-07 16:41:00,47.0,34.0,-100.00,SSE,158,23.0,33.0,61,0.00,,,0.00,378.000000,,2013-02-08 00:41:00,
2013-02-07 16:52:00,47.0,34.0,-100.00,SSE,158,23.0,33.0,61,0.00,,,0.00,378.000000,,2013-02-08 00:52:00,
2013-02-07 17:41:00,46.0,30.0,-100.00,SSE,166,16.0,25.0,53,0.00,,,0.00,113.000000,,2013-02-08 01:41:00,
2013-02-07 17:51:00,46.0,30.0,-100.00,SSE,166,16.0,25.0,53,0.00,,,0.00,113.000000,,2013-02-08 01:51:00,
2013-02-07 18:21:00,42.0,30.0,-100.00,SSE,161,10.0,24.0,63,0.00,,,0.00,6.000000,,2013-02-08 02:21:00,
2013-02-07 18:31:00,42.0,30.0,-100.00,SSE,161,10.0,24.0,63,0.00,,,0.00,6.000000,,2013-02-08 02:31:00,
2013-02-07 18:42:00,42.0,30.0,-100.00,SSE,161,10.0,24.0,63,0.00,,,0.00,6.000000,,2013-02-08 02:42:00,
2013-02-07 18:52:00,42.0,30.0,-100.00,SSE,161,10.0,24.0,63,0.00,,,0.00,6.000000,,2013-02-08 02:52:00,
2013-02-07 19:22:00,41.0,30.0,-100.00,SSE,149,11.0,26.0,64,0.00,,,0.00,0.000000,,2013-02-08 03:22:00,
2013-02-07 19:32:00,41.0,30.0,-100.00,SSE,149,11.0,26.0,64,0.00,,,0.00,0.000000,,2013-02-08 03:32:00,
2013-02-07 19:41:00,41.0,30.0,-100.00,SSE,149,11.0,26.0,64,0.00,,,0.00,0.000000,,2013-02-08 03:41:00,
2013-02-07 19:51:00,41.0,30.0,-100.00,SSE,149,11.0,26.0,64,0.00,,,0.00,0.000000,,2013-02-08 03:51:00,
2013-02-07 20:21:00,40.0,31.0,-100.00,SSE,154,4.0,14.0,70,0.00,,,0.00,0.000000,,2013-02-08 04:21:00,
2013-02-07 20:32:00,40.0,31.0,-100.00,SSE,154,4.0,14.0,70,0.00,,,0.00,0.000000,,2013-02-08 04:32:00,
2013-02-07 20:41:00,40.0,31.0,-100.00,SSE,154,4.0,14.0,70,0.00,,,0.00,0.000000,,2013-02-08 04:41:00,
2013-02-07 20:51:00,40.0,31.0,-100.00,SSE,154,4.0,14.0,70,0.00,,,0.00,0.000000,,2013-02-08 04:51:00,
2013-02-07 21:22:00,39.0,31.0,-100.00,NE,36,4.0,13.0,73,0.00,,,0.00,0.000000,,2013-02-08 05:22:00,
2013-02-07 21:31:00,39.0,31.0,-100.00,NE,36,4.0,13.0,73,0.00,,,0.00,0.000000,,2013-02-08 05:31:00,
2013-02-07 21:41:00,39.0,31.0,-100.00,NE,36,4.0,13.0,73,0.00,,,0.00,0.000000,,2013-02-08 05:41:00,
2013-02-07 21:52:00,39.0,31.0,-100.00,NE,36,4.0,13.0,73,0.00,,,0.00,0.000000,,2013-02-08 05:52:00,
2013-02-07 22:21:00,36.0,29.0,-100.00,NNW,332,0.0,5.0,75,0.00,,,0.00,0.000000,,2013-02-08 06:21:00,
2013-02-07 22:31:00,36.0,29.0,-100.00,NNW,332,0.0,5.0,75,0.00,,,0.00,0.000000,,2013-02-08 06:31:00,
2013-02-07 22:41:00,36.0,29.0,-100.00,NNW,332,0.0,5.0,75,0.00,,,0.00,0.000000,,2013-02-08 06:41:00,
2013-02-07 22:51:00,36.0,29.0,-100.00,NNW,332,0.0,5.0,75,0.00,,,0.00,0.000000,,2013-02-08 06:51:00,
2013-02-07 23:21:00,38.0,31.0,-100.00,NE,44,0.0,4.0,75,0.00,,,0.00,0.000000,,2013-02-08 07:21:00,
2013-02-07 23:31:00,38.0,31.0,-100.00,NE,44,0.0,4.0,75,0.00,,,0.00,0.000000,,2013-02-08 07:31:00,
2013-02-07 23:42:00,38.0,31.0,-100.00,NE,44,0.0,4.0,75,0.00,,,0.00,0.000000,,2013-02-08 07:42:00,
2013-02-07 23:51:00,38.0,31.0,-100.00,NE,44,0.0,4.0,75,0.00,,,0.00,0.000000,,2013-02-08 07:51:00,